104  
SXUS55 KMSO 290523  
OSOMSO  
MONTANA AWOS SUMMARY  
NATIONAL WEATHER SERVICE MISSOULA MT  
1123 PM MDT WED JUN 28 2017  
 
MONTANA AWOS REPORTS  
 
LAUREL |K6S8 290515Z AUTO 22004KT 40SM 14/07 A2987 RMK AO1 T01440067  
ROUNDUP |KRPX 290515Z AUTO 20007KT 40SM 17/05 A2976 RMK AO1 T01670050  
 
CLICK HERE TO GO TO PREVIOUS BULLETINS.

The Nexlab MT Page
The Nexlab ID Page Main Text Page